Time;durP1;ratioP1;P1;durP2;ratioP2;P2;SDS_P1;SDS_P2;PMS_P1;PMS_P2;Temp;Humidity;BMP_temperature;BMP_pressure;BME280_temperature;BME280_humidity;BME280_pressure;Samples;Min_cycle;Max_cycle;Signal;HPM_P1;HPM_P2
2024/01/30 00:02:17;;;;;;;27.77;25.65;;;;;;;;;;5077564;28;20211;-80
2024/01/30 00:04:44;;;;;;;28.85;26.55;;;;;;;;;;5065809;28;20323;-80
2024/01/30 00:07:11;;;;;;;28.17;26.17;;;;;;;;;;5060077;28;20350;-80
2024/01/30 00:09:40;;;;;;;28.02;25.58;;;;;;;;;;5059328;28;20588;-81
2024/01/30 00:12:08;;;;;;;28.70;26.33;;;;;;;;;;5064512;28;20626;-81
2024/01/30 00:14:35;;;;;;;28.20;26.00;;;;;;;;;;5080052;28;20651;-80
2024/01/30 00:17:02;;;;;;;28.15;25.92;;;;;;;;;;5079816;28;20432;-80
2024/01/30 00:19:29;;;;;;;26.38;24.58;;;;;;;;;;5080396;28;20223;-80
2024/01/30 00:21:56;;;;;;;29.65;27.45;;;;;;;;;;5070348;28;20726;-79
2024/01/30 00:24:25;;;;;;;26.92;24.75;;;;;;;;;;5058727;28;20199;-80
2024/01/30 00:26:53;;;;;;;28.65;26.40;;;;;;;;;;5058103;28;20214;-80
2024/01/30 00:29:22;;;;;;;26.23;24.35;;;;;;;;;;5058082;28;20235;-79
2024/01/30 00:31:50;;;;;;;28.75;26.65;;;;;;;;;;5058083;28;20615;-79
2024/01/30 00:34:17;;;;;;;28.55;26.50;;;;;;;;;;5057003;28;20235;-80
2024/01/30 00:36:44;;;;;;;27.13;25.30;;;;;;;;;;5057117;28;20208;-80
2024/01/30 00:39:11;;;;;;;28.23;26.23;;;;;;;;;;5057921;28;20269;-79
2024/01/30 00:41:39;;;;;;;27.88;25.98;;;;;;;;;;5057898;28;20197;-80
2024/01/30 00:44:07;;;;;;;27.25;25.45;;;;;;;;;;5058174;28;20212;-81
2024/01/30 00:46:34;;;;;;;27.70;25.70;;;;;;;;;;5057902;28;20281;-80
2024/01/30 00:49:02;;;;;;;28.08;25.58;;;;;;;;;;5058418;28;20227;-81
2024/01/30 00:51:29;;;;;;;26.33;24.52;;;;;;;;;;5058253;28;20641;-80
2024/01/30 00:53:56;;;;;;;28.50;26.30;;;;;;;;;;5057203;28;20218;-80
2024/01/30 00:56:24;;;;;;;27.40;25.50;;;;;;;;;;5057250;28;20204;-80
2024/01/30 00:58:51;;;;;;;26.30;24.50;;;;;;;;;;5057714;28;20227;-80
2024/01/30 01:01:20;;;;;;;27.48;25.38;;;;;;;;;;5058539;28;20550;-80
2024/01/30 01:03:48;;;;;;;28.58;26.38;;;;;;;;;;5058185;28;20204;-80
2024/01/30 01:06:15;;;;;;;29.73;27.63;;;;;;;;;;5056641;28;20306;-80
2024/01/30 01:08:42;;;;;;;28.65;26.55;;;;;;;;;;5057366;28;20208;-80
2024/01/30 01:11:09;;;;;;;27.08;25.08;;;;;;;;;;5057329;28;20270;-80
2024/01/30 01:13:37;;;;;;;28.45;26.35;;;;;;;;;;5056768;28;20291;-79
2024/01/30 01:16:04;;;;;;;30.70;28.10;;;;;;;;;;5056600;28;20196;-81
2024/01/30 01:18:33;;;;;;;29.02;26.88;;;;;;;;;;5057841;28;20197;-80
2024/01/30 01:21:01;;;;;;;29.15;27.02;;;;;;;;;;5057340;28;20236;-80
2024/01/30 01:23:29;;;;;;;29.23;26.92;;;;;;;;;;5057448;28;20200;-79
2024/01/30 01:25:56;;;;;;;28.58;26.48;;;;;;;;;;5057362;28;20204;-80
2024/01/30 01:28:23;;;;;;;29.60;27.25;;;;;;;;;;5057452;28;20216;-81
2024/01/30 01:30:51;;;;;;;29.67;26.95;;;;;;;;;;5055291;28;20236;-79
2024/01/30 01:33:18;;;;;;;31.17;28.50;;;;;;;;;;5054807;28;20212;-78
2024/01/30 01:35:48;;;;;;;28.70;26.63;;;;;;;;;;5055931;28;21285;-80
2024/01/30 01:38:15;;;;;;;29.40;27.10;;;;;;;;;;5055949;28;20211;-80
2024/01/30 01:40:43;;;;;;;29.05;26.95;;;;;;;;;;5055380;28;20254;-78
2024/01/30 01:43:11;;;;;;;28.80;26.60;;;;;;;;;;5054824;28;20243;-77
2024/01/30 01:45:39;;;;;;;29.45;27.15;;;;;;;;;;5054234;28;20316;-78
2024/01/30 01:48:06;;;;;;;31.10;28.53;;;;;;;;;;5054461;28;20204;-78
2024/01/30 01:50:33;;;;;;;28.17;25.97;;;;;;;;;;5055342;28;20595;-78
2024/01/30 01:53:03;;;;;;;29.35;27.15;;;;;;;;;;5054870;28;20441;-78
2024/01/30 01:55:32;;;;;;;29.05;26.63;;;;;;;;;;5055412;28;20665;-78
2024/01/30 01:58:00;;;;;;;28.17;26.08;;;;;;;;;;5054270;28;20274;-77
2024/01/30 02:00:28;;;;;;;28.95;26.58;;;;;;;;;;5055348;28;20223;-78
2024/01/30 02:02:56;;;;;;;27.92;25.80;;;;;;;;;;5054784;28;20227;-79
2024/01/30 02:05:24;;;;;;;28.85;26.75;;;;;;;;;;5054600;28;20694;-78
2024/01/30 02:07:51;;;;;;;27.95;25.70;;;;;;;;;;5053644;28;20200;-79
2024/01/30 02:10:20;;;;;;;27.63;25.70;;;;;;;;;;5065014;28;20272;-78
2024/01/30 02:12:47;;;;;;;28.65;26.38;;;;;;;;;;5074668;28;20265;-79
2024/01/30 02:15:15;;;;;;;28.45;26.35;;;;;;;;;;5074618;28;20207;-79
2024/01/30 02:17:42;;;;;;;28.80;26.65;;;;;;;;;;5068601;28;20212;-79
2024/01/30 02:20:10;;;;;;;27.42;25.38;;;;;;;;;;5054773;28;20243;-79
2024/01/30 02:22:39;;;;;;;28.63;26.60;;;;;;;;;;5053821;28;20623;-79
2024/01/30 02:25:06;;;;;;;30.50;28.25;;;;;;;;;;5054877;28;20445;-80
2024/01/30 02:27:33;;;;;;;27.98;26.10;;;;;;;;;;5059179;28;20208;-78
2024/01/30 02:30:00;;;;;;;27.58;25.52;;;;;;;;;;5060382;28;20236;-78
2024/01/30 02:32:27;;;;;;;28.17;26.02;;;;;;;;;;5057264;28;20634;-80
2024/01/30 02:34:56;;;;;;;28.63;26.50;;;;;;;;;;5061448;28;20254;-78
2024/01/30 02:37:22;;;;;;;28.30;26.27;;;;;;;;;;5061444;28;20457;-78
2024/01/30 02:39:51;;;;;;;27.92;25.73;;;;;;;;;;5061819;28;20256;-78
2024/01/30 02:42:18;;;;;;;29.08;26.83;;;;;;;;;;5064410;28;20258;-79
2024/01/30 02:44:45;;;;;;;27.60;25.63;;;;;;;;;;5061011;28;20671;-79
2024/01/30 02:47:12;;;;;;;30.20;27.70;;;;;;;;;;5060894;28;20204;-79
2024/01/30 02:49:39;;;;;;;28.75;26.50;;;;;;;;;;5061672;28;20281;-78
2024/01/30 02:52:07;;;;;;;28.05;25.85;;;;;;;;;;5061174;28;20274;-78
2024/01/30 02:54:34;;;;;;;27.00;25.20;;;;;;;;;;5060358;28;20211;-80
2024/01/30 02:57:02;;;;;;;28.80;26.27;;;;;;;;;;5060296;28;20540;-79
2024/01/30 02:59:33;;;;;;;28.02;25.98;;;;;;;;;;5060134;28;20638;-79
2024/01/30 03:02:00;;;;;;;29.70;27.23;;;;;;;;;;5060375;28;20215;-79
2024/01/30 03:04:29;;;;;;;27.00;25.05;;;;;;;;;;5060490;28;20202;-79
2024/01/30 03:06:56;;;;;;;28.48;26.20;;;;;;;;;;5060342;28;20212;-78
2024/01/30 03:09:25;;;;;;;29.08;26.65;;;;;;;;;;5060893;28;20262;-79
2024/01/30 03:11:52;;;;;;;27.85;25.88;;;;;;;;;;5059870;28;20231;-79
2024/01/30 03:14:20;;;;;;;27.83;25.92;;;;;;;;;;5060126;28;20212;-79
2024/01/30 03:16:47;;;;;;;27.80;25.70;;;;;;;;;;5059795;28;20749;-78
2024/01/30 03:19:14;;;;;;;27.88;25.70;;;;;;;;;;5059503;28;20257;-80
2024/01/30 03:21:42;;;;;;;27.85;25.77;;;;;;;;;;5061446;28;20210;-78
2024/01/30 03:24:09;;;;;;;28.10;25.95;;;;;;;;;;5060191;28;20269;-80
2024/01/30 03:26:36;;;;;;;28.98;26.88;;;;;;;;;;5060101;28;20234;-79
2024/01/30 03:29:03;;;;;;;29.48;27.20;;;;;;;;;;5059840;28;20800;-79
2024/01/30 03:31:33;;;;;;;29.40;27.38;;;;;;;;;;5059897;28;20254;-79
2024/01/30 03:34:00;;;;;;;29.88;27.25;;;;;;;;;;5073361;28;20215;-79
2024/01/30 03:36:27;;;;;;;28.58;26.30;;;;;;;;;;5080593;28;20199;-79
2024/01/30 03:38:54;;;;;;;28.42;26.40;;;;;;;;;;5080331;28;20329;-79
2024/01/30 03:41:21;;;;;;;30.65;28.38;;;;;;;;;;5080136;28;20327;-79
2024/01/30 03:43:49;;;;;;;30.38;28.08;;;;;;;;;;5060451;28;20293;-79
2024/01/30 03:46:17;;;;;;;30.23;27.83;;;;;;;;;;5057277;28;20204;-79
2024/01/30 03:48:47;;;;;;;27.98;25.98;;;;;;;;;;5057729;28;20248;-79
2024/01/30 03:51:15;;;;;;;29.43;27.33;;;;;;;;;;5058095;28;20220;-77
2024/01/30 03:53:43;;;;;;;31.42;29.00;;;;;;;;;;5057335;28;20417;-78
2024/01/30 03:56:10;;;;;;;27.38;25.58;;;;;;;;;;5057273;28;20204;-78
2024/01/30 03:58:39;;;;;;;29.60;27.42;;;;;;;;;;5057275;28;20254;-79
2024/01/30 04:01:06;;;;;;;29.45;27.02;;;;;;;;;;5056788;28;20214;-78
2024/01/30 04:03:33;;;;;;;28.90;26.52;;;;;;;;;;5057133;28;20204;-79
2024/01/30 04:06:02;;;;;;;30.83;28.42;;;;;;;;;;5056573;28;20208;-79
2024/01/30 04:08:29;;;;;;;30.67;28.00;;;;;;;;;;5057781;28;20204;-80
2024/01/30 04:10:56;;;;;;;29.95;27.85;;;;;;;;;;5057406;28;20635;-79
2024/01/30 04:13:23;;;;;;;31.08;28.58;;;;;;;;;;5056620;28;20196;-79
2024/01/30 04:15:50;;;;;;;30.48;28.10;;;;;;;;;;5056722;28;20269;-78
2024/01/30 04:18:17;;;;;;;30.85;27.98;;;;;;;;;;5056376;28;20216;-79
2024/01/30 04:20:44;;;;;;;29.77;27.65;;;;;;;;;;5056389;28;20766;-78
2024/01/30 04:23:13;;;;;;;30.10;27.93;;;;;;;;;;5056230;28;20204;-79
2024/01/30 04:25:40;;;;;;;28.60;26.50;;;;;;;;;;5056929;28;21059;-78
2024/01/30 04:28:07;;;;;;;30.48;27.83;;;;;;;;;;5054999;28;20200;-78
2024/01/30 04:30:34;;;;;;;30.98;28.05;;;;;;;;;;5056498;28;20232;-81
2024/01/30 04:33:02;;;;;;;30.58;28.27;;;;;;;;;;5057326;28;20277;-81
2024/01/30 04:35:29;;;;;;;29.25;26.85;;;;;;;;;;5056629;28;20203;-79
2024/01/30 04:37:57;;;;;;;29.52;26.90;;;;;;;;;;5056053;28;20270;-78
2024/01/30 04:40:27;;;;;;;30.30;27.85;;;;;;;;;;5056130;28;20285;-79
2024/01/30 04:42:55;;;;;;;30.35;27.95;;;;;;;;;;5055824;28;21072;-78
2024/01/30 04:45:22;;;;;;;30.50;28.10;;;;;;;;;;5055552;28;20208;-78
2024/01/30 04:47:50;;;;;;;29.73;27.52;;;;;;;;;;5056509;28;20606;-81
2024/01/30 04:50:17;;;;;;;30.95;28.42;;;;;;;;;;5057795;28;20274;-82
2024/01/30 04:52:46;;;;;;;30.65;28.15;;;;;;;;;;5056076;28;20224;-79
2024/01/30 04:55:13;;;;;;;32.65;29.88;;;;;;;;;;5055883;28;20204;-78
2024/01/30 04:57:42;;;;;;;32.58;29.88;;;;;;;;;;5055596;28;20265;-78
2024/01/30 05:00:10;;;;;;;32.35;29.67;;;;;;;;;;5056132;28;20219;-79
2024/01/30 05:02:37;;;;;;;31.10;28.60;;;;;;;;;;5055758;28;20204;-80
2024/01/30 05:05:04;;;;;;;32.05;29.25;;;;;;;;;;5055802;28;20208;-79
2024/01/30 05:07:32;;;;;;;31.40;28.88;;;;;;;;;;5055364;28;20611;-79
2024/01/30 05:09:59;;;;;;;30.20;27.80;;;;;;;;;;5055329;28;20224;-79
2024/01/30 05:12:26;;;;;;;33.13;30.40;;;;;;;;;;5054802;28;20243;-79
2024/01/30 05:14:55;;;;;;;33.50;30.63;;;;;;;;;;5055675;28;20723;-79
2024/01/30 05:17:22;;;;;;;30.40;27.77;;;;;;;;;;5055851;28;20638;-79
2024/01/30 05:19:49;;;;;;;32.38;29.88;;;;;;;;;;5055464;28;20224;-79
2024/01/30 05:22:18;;;;;;;32.08;29.45;;;;;;;;;;5055995;28;20199;-79
2024/01/30 05:24:45;;;;;;;31.27;28.85;;;;;;;;;;5055677;28;20248;-79
2024/01/30 05:27:14;;;;;;;32.00;29.30;;;;;;;;;;5054974;28;20212;-78
2024/01/30 05:29:41;;;;;;;30.80;28.33;;;;;;;;;;5055694;28;20557;-78
2024/01/30 05:32:10;;;;;;;31.58;28.90;;;;;;;;;;5055303;28;20482;-81
2024/01/30 05:34:39;;;;;;;32.55;29.73;;;;;;;;;;5055605;28;20204;-78
2024/01/30 05:37:06;;;;;;;31.58;29.17;;;;;;;;;;5054991;28;20231;-78
2024/01/30 05:39:33;;;;;;;30.05;27.73;;;;;;;;;;5055203;28;20238;-79
2024/01/30 05:42:01;;;;;;;31.88;29.20;;;;;;;;;;5055637;28;20212;-78
2024/01/30 05:44:28;;;;;;;30.87;28.57;;;;;;;;;;5054722;28;20238;-78
2024/01/30 05:46:55;;;;;;;31.95;29.02;;;;;;;;;;5053667;28;20450;-77
2024/01/30 05:49:24;;;;;;;32.25;29.65;;;;;;;;;;5055148;28;20287;-78
2024/01/30 05:51:51;;;;;;;32.65;30.20;;;;;;;;;;5069054;28;20266;-78
2024/01/30 05:54:18;;;;;;;32.42;29.83;;;;;;;;;;5054024;28;20607;-78
2024/01/30 05:56:45;;;;;;;32.40;29.50;;;;;;;;;;5054478;28;20277;-80
2024/01/30 05:59:12;;;;;;;34.25;31.02;;;;;;;;;;5053759;28;20220;-79
2024/01/30 06:01:39;;;;;;;32.63;29.65;;;;;;;;;;5053480;28;20258;-79
2024/01/30 06:04:06;;;;;;;33.72;30.63;;;;;;;;;;5053031;28;20203;-78
2024/01/30 06:06:35;;;;;;;34.20;31.27;;;;;;;;;;5053615;28;20212;-78
2024/01/30 06:09:02;;;;;;;32.58;29.98;;;;;;;;;;5054932;28;20282;-81
2024/01/30 06:11:32;;;;;;;33.67;30.90;;;;;;;;;;5054429;28;20212;-79
2024/01/30 06:13:59;;;;;;;31.55;28.65;;;;;;;;;;5053943;28;20286;-77
2024/01/30 06:16:29;;;;;;;33.65;30.63;;;;;;;;;;5053989;28;20208;-80
2024/01/30 06:18:56;;;;;;;32.67;29.88;;;;;;;;;;5054801;28;20220;-79
2024/01/30 06:21:23;;;;;;;31.10;28.45;;;;;;;;;;5055720;28;20204;-79
2024/01/30 06:23:51;;;;;;;32.15;29.38;;;;;;;;;;5054505;28;20314;-80
2024/01/30 06:26:19;;;;;;;32.50;29.60;;;;;;;;;;5054439;28;20212;-79
2024/01/30 06:28:46;;;;;;;33.53;30.63;;;;;;;;;;5055658;28;20200;-79
2024/01/30 06:31:13;;;;;;;33.55;30.75;;;;;;;;;;5055027;28;20208;-80
2024/01/30 06:33:42;;;;;;;34.42;31.60;;;;;;;;;;5054433;28;20224;-80
2024/01/30 06:36:09;;;;;;;33.50;30.52;;;;;;;;;;5049938;28;20220;-77
2024/01/30 06:38:36;;;;;;;34.13;30.95;;;;;;;;;;5050736;28;20204;-77
2024/01/30 06:41:05;;;;;;;34.42;31.42;;;;;;;;;;5050701;28;20210;-77
2024/01/30 06:43:32;;;;;;;33.00;30.33;;;;;;;;;;5051014;28;20209;-79
2024/01/30 06:45:59;;;;;;;34.65;31.50;;;;;;;;;;5050818;28;20208;-76
2024/01/30 06:48:26;;;;;;;32.20;29.40;;;;;;;;;;5050052;28;20718;-76
2024/01/30 06:50:54;;;;;;;33.28;30.23;;;;;;;;;;5050514;28;20224;-77
2024/01/30 06:53:21;;;;;;;33.88;30.50;;;;;;;;;;5050464;28;20255;-77
2024/01/30 06:55:49;;;;;;;33.53;30.73;;;;;;;;;;5050734;28;20208;-77
2024/01/30 06:58:18;;;;;;;32.92;30.00;;;;;;;;;;5049896;28;20220;-76
2024/01/30 07:00:45;;;;;;;35.30;32.10;;;;;;;;;;5050649;28;20282;-76
2024/01/30 07:03:13;;;;;;;32.30;29.40;;;;;;;;;;5050649;28;20610;-76
2024/01/30 07:05:40;;;;;;;33.00;30.20;;;;;;;;;;5050610;28;20204;-78
2024/01/30 07:08:08;;;;;;;33.58;30.77;;;;;;;;;;5050095;28;20213;-77
2024/01/30 07:10:36;;;;;;;33.08;29.73;;;;;;;;;;5050220;28;20239;-78
2024/01/30 07:13:04;;;;;;;33.85;31.02;;;;;;;;;;5048349;28;20311;-78
2024/01/30 07:15:32;;;;;;;33.60;30.48;;;;;;;;;;5049730;28;20200;-77
2024/01/30 07:17:59;;;;;;;33.15;30.50;;;;;;;;;;5048960;28;20235;-78
2024/01/30 07:20:26;;;;;;;33.05;30.13;;;;;;;;;;5052872;28;20228;-77
2024/01/30 07:22:54;;;;;;;32.03;29.08;;;;;;;;;;5054356;28;20208;-77
2024/01/30 07:25:21;;;;;;;33.15;30.17;;;;;;;;;;5054232;28;20204;-77
2024/01/30 07:27:48;;;;;;;33.78;30.60;;;;;;;;;;5053352;28;20727;-77
2024/01/30 07:30:17;;;;;;;33.80;30.65;;;;;;;;;;5053666;28;20221;-77
2024/01/30 07:32:45;;;;;;;35.70;32.60;;;;;;;;;;5053556;28;20232;-78
2024/01/30 07:35:12;;;;;;;33.08;30.17;;;;;;;;;;5054010;28;20208;-78
2024/01/30 07:37:39;;;;;;;36.53;33.30;;;;;;;;;;5053290;28;20205;-77
2024/01/30 07:40:07;;;;;;;35.17;32.22;;;;;;;;;;5053724;28;20285;-77
2024/01/30 07:42:34;;;;;;;34.78;31.73;;;;;;;;;;5053648;28;20203;-77
2024/01/30 07:45:02;;;;;;;34.90;31.75;;;;;;;;;;5053509;28;20722;-77
2024/01/30 07:47:29;;;;;;;34.63;31.10;;;;;;;;;;5053013;28;20297;-77
2024/01/30 07:50:00;;;;;;;35.60;32.55;;;;;;;;;;5053287;28;20228;-78
2024/01/30 07:52:28;;;;;;;34.17;31.15;;;;;;;;;;5053465;28;20224;-78
2024/01/30 07:54:55;;;;;;;34.22;31.42;;;;;;;;;;5053530;28;20870;-78
2024/01/30 07:57:22;;;;;;;33.35;30.58;;;;;;;;;;5052775;28;20755;-77
2024/01/30 07:59:50;;;;;;;35.13;31.95;;;;;;;;;;5053479;28;20282;-78
2024/01/30 08:02:17;;;;;;;34.42;31.38;;;;;;;;;;5053370;28;20671;-78
2024/01/30 08:04:48;;;;;;;31.05;28.42;;;;;;;;;;5053061;28;20285;-78
2024/01/30 08:07:17;;;;;;;32.60;29.75;;;;;;;;;;5052625;28;20730;-78
2024/01/30 08:09:45;;;;;;;33.30;30.57;;;;;;;;;;5053037;28;20228;-77
2024/01/30 08:12:13;;;;;;;31.80;29.02;;;;;;;;;;5053146;28;20525;-77
2024/01/30 08:14:41;;;;;;;32.83;30.02;;;;;;;;;;5053308;28;20247;-77
2024/01/30 08:17:08;;;;;;;32.65;29.77;;;;;;;;;;5052333;28;20220;-77
2024/01/30 08:19:37;;;;;;;32.28;29.42;;;;;;;;;;5052997;28;20231;-78
2024/01/30 08:22:05;;;;;;;32.80;30.00;;;;;;;;;;5053178;28;20204;-78
2024/01/30 08:24:33;;;;;;;32.97;29.90;;;;;;;;;;5053321;28;20250;-77
2024/01/30 08:27:02;;;;;;;31.15;28.25;;;;;;;;;;5052375;28;20211;-76
2024/01/30 08:29:29;;;;;;;30.13;27.83;;;;;;;;;;5051827;28;20318;-78
2024/01/30 08:31:59;;;;;;;31.55;28.85;;;;;;;;;;5052606;28;20208;-77
2024/01/30 08:34:26;;;;;;;30.27;27.60;;;;;;;;;;5052836;28;20235;-77
2024/01/30 08:36:52;;;;;;;31.35;28.73;;;;;;;;;;5052100;28;20200;-77
2024/01/30 08:39:19;;;;;;;29.52;27.17;;;;;;;;;;5053171;28;20290;-78
2024/01/30 08:41:48;;;;;;;31.10;27.63;;;;;;;;;;5053316;28;20616;-78
2024/01/30 08:44:15;;;;;;;30.02;27.00;;;;;;;;;;5053438;28;20199;-77
2024/01/30 08:46:43;;;;;;;31.55;28.95;;;;;;;;;;5051994;28;20220;-78
2024/01/30 08:49:10;;;;;;;30.02;27.73;;;;;;;;;;5052588;28;20228;-79
2024/01/30 08:51:37;;;;;;;30.65;27.88;;;;;;;;;;5053441;28;20204;-79
2024/01/30 08:54:05;;;;;;;30.38;27.55;;;;;;;;;;5052565;28;20224;-78
2024/01/30 08:56:32;;;;;;;29.93;27.40;;;;;;;;;;5052325;28;20207;-77
2024/01/30 08:59:01;;;;;;;31.70;28.95;;;;;;;;;;5052520;28;20437;-77
2024/01/30 09:01:28;;;;;;;29.75;27.50;;;;;;;;;;5052328;28;20211;-77
2024/01/30 09:03:55;;;;;;;28.65;26.27;;;;;;;;;;5052439;28;20295;-78
2024/01/30 09:06:23;;;;;;;30.40;27.83;;;;;;;;;;5052219;28;20262;-77
2024/01/30 09:08:51;;;;;;;27.77;25.67;;;;;;;;;;5052987;28;20537;-78
2024/01/30 09:11:18;;;;;;;27.83;25.83;;;;;;;;;;5054404;28;20843;-78
2024/01/30 09:13:45;;;;;;;29.75;27.45;;;;;;;;;;5055092;28;20289;-79
2024/01/30 09:16:13;;;;;;;28.70;26.20;;;;;;;;;;5052393;28;20216;-78
2024/01/30 09:18:40;;;;;;;28.45;26.05;;;;;;;;;;5050773;28;20983;-78
2024/01/30 09:21:07;;;;;;;27.85;25.35;;;;;;;;;;5054819;28;20624;-78
2024/01/30 09:23:34;;;;;;;28.10;25.90;;;;;;;;;;5071752;28;20225;-78
2024/01/30 09:26:01;;;;;;;27.10;25.27;;;;;;;;;;5071911;28;20460;-79
2024/01/30 09:28:28;;;;;;;26.87;24.80;;;;;;;;;;5071828;28;20211;-78
2024/01/30 09:30:55;;;;;;;26.17;24.13;;;;;;;;;;5059589;28;20481;-78
2024/01/30 09:33:25;;;;;;;27.13;25.23;;;;;;;;;;5051349;28;20850;-79
2024/01/30 09:35:52;;;;;;;26.47;24.47;;;;;;;;;;5051816;28;20867;-78
2024/01/30 09:38:20;;;;;;;26.50;24.60;;;;;;;;;;5050865;28;20866;-75
2024/01/30 09:40:53;;;;;;;26.90;24.50;;;;;;;;;;5051016;28;20472;-75
2024/01/30 09:43:23;;;;;;;26.57;24.67;;;;;;;;;;5049377;28;20453;-75
2024/01/30 09:45:51;;;;;;;25.50;23.70;;;;;;;;;;5051237;28;20432;-75
2024/01/30 09:48:19;;;;;;;25.57;23.77;;;;;;;;;;5050649;28;20551;-75
2024/01/30 09:50:47;;;;;;;24.33;22.63;;;;;;;;;;5050882;28;20474;-75
2024/01/30 09:53:16;;;;;;;26.10;23.80;;;;;;;;;;5051161;28;20561;-75
2024/01/30 09:55:45;;;;;;;26.77;24.77;;;;;;;;;;5051029;28;20458;-75
2024/01/30 09:58:13;;;;;;;26.37;24.50;;;;;;;;;;5050423;28;20511;-75
2024/01/30 10:00:41;;;;;;;25.37;23.57;;;;;;;;;;5050880;28;20437;-75
2024/01/30 10:03:10;;;;;;;24.70;22.57;;;;;;;;;;5050859;28;20417;-75
2024/01/30 10:05:38;;;;;;;27.57;25.37;;;;;;;;;;5050561;28;20436;-74
2024/01/30 10:08:09;;;;;;;25.37;23.37;;;;;;;;;;5049827;28;21048;-75
2024/01/30 10:10:36;;;;;;;24.43;22.80;;;;;;;;;;5050370;28;20470;-75
2024/01/30 10:13:03;;;;;;;24.30;22.50;;;;;;;;;;5050336;28;20442;-75
2024/01/30 10:15:30;;;;;;;26.20;24.07;;;;;;;;;;5050672;28;20446;-75
2024/01/30 10:17:58;;;;;;;26.30;24.40;;;;;;;;;;5049862;28;21011;-75
2024/01/30 10:20:26;;;;;;;26.83;24.73;;;;;;;;;;5050683;28;20500;-75
2024/01/30 10:22:53;;;;;;;25.30;23.60;;;;;;;;;;5051142;28;20451;-82
2024/01/30 10:25:23;;;;;;;26.77;24.60;;;;;;;;;;5051686;28;20532;-79
2024/01/30 10:27:55;;;;;;;26.43;24.50;;;;;;;;;;5050424;28;20921;-79
2024/01/30 10:30:22;;;;;;;23.60;21.90;;;;;;;;;;5053049;28;20494;-78
2024/01/30 10:32:49;;;;;;;25.97;23.87;;;;;;;;;;5051388;28;20841;-78
2024/01/30 10:35:17;;;;;;;25.27;23.37;;;;;;;;;;5051263;28;20504;-78
2024/01/30 10:37:45;;;;;;;25.20;23.23;;;;;;;;;;5050540;28;20454;-78
2024/01/30 10:40:17;;;;;;;23.43;21.70;;;;;;;;;;5053396;28;20466;-78
2024/01/30 10:42:45;;;;;;;24.40;22.70;;;;;;;;;;5051125;28;20451;-77
2024/01/30 10:45:13;;;;;;;26.73;24.30;;;;;;;;;;5050044;28;20429;-78
2024/01/30 10:47:41;;;;;;;24.30;22.60;;;;;;;;;;5050044;28;20450;-77
2024/01/30 10:50:10;;;;;;;24.30;22.53;;;;;;;;;;5050003;28;20973;-77
2024/01/30 10:52:37;;;;;;;23.67;22.00;;;;;;;;;;5051538;28;20501;-78
2024/01/30 10:55:06;;;;;;;24.13;22.47;;;;;;;;;;5054305;28;20981;-77
2024/01/30 10:57:35;;;;;;;23.63;22.07;;;;;;;;;;5053850;28;20437;-77
2024/01/30 11:00:06;;;;;;;24.40;22.70;;;;;;;;;;5054517;28;20482;-77
2024/01/30 11:02:34;;;;;;;23.23;21.43;;;;;;;;;;5054336;28;20487;-78
2024/01/30 11:05:02;;;;;;;21.93;20.53;;;;;;;;;;5054806;28;20508;-77
2024/01/30 11:07:30;;;;;;;23.33;21.63;;;;;;;;;;5054223;28;20432;-77
2024/01/30 11:10:02;;;;;;;23.03;21.53;;;;;;;;;;5054422;28;20479;-77
2024/01/30 11:12:29;;;;;;;21.23;19.93;;;;;;;;;;5054523;28;20527;-77
2024/01/30 11:15:06;;;;;;;21.63;20.23;;;;;;;;;;5054395;28;20489;-77
2024/01/30 11:17:46;;;;;;;23.33;21.93;;;;;;;;;;5053342;28;20999;-77
2024/01/30 11:20:14;;;;;;;24.03;22.30;;;;;;;;;;5053990;28;20477;-77
2024/01/30 11:22:44;;;;;;;24.30;22.80;;;;;;;;;;5053997;28;20472;-77
2024/01/30 11:25:15;;;;;;;23.70;21.90;;;;;;;;;;5054362;28;20517;-77
2024/01/30 11:27:43;;;;;;;23.23;21.83;;;;;;;;;;5052949;28;21009;-77
2024/01/30 11:30:12;;;;;;;23.43;21.80;;;;;;;;;;5054061;28;20471;-77
2024/01/30 11:32:39;;;;;;;24.23;22.40;;;;;;;;;;5054073;28;20454;-77
2024/01/30 11:35:08;;;;;;;23.73;22.13;;;;;;;;;;5054185;28;20465;-77
2024/01/30 11:37:38;;;;;;;20.93;19.63;;;;;;;;;;5053522;28;20967;-77
2024/01/30 11:40:06;;;;;;;24.30;22.70;;;;;;;;;;5053842;28;20970;-78
2024/01/30 11:42:34;;;;;;;23.70;22.23;;;;;;;;;;5061933;28;20477;-77
2024/01/30 11:45:03;;;;;;;25.57;23.57;;;;;;;;;;5073873;28;20958;-77
2024/01/30 11:47:32;;;;;;;25.47;23.77;;;;;;;;;;5073348;28;20453;-77
2024/01/30 11:50:00;;;;;;;24.07;22.50;;;;;;;;;;5074506;28;20511;-77
2024/01/30 11:52:28;;;;;;;24.97;23.13;;;;;;;;;;5073343;28;20515;-76
2024/01/30 11:54:56;;;;;;;25.03;23.40;;;;;;;;;;5073070;28;20981;-76
2024/01/30 11:57:23;;;;;;;24.20;22.30;;;;;;;;;;5074044;28;20513;-79
2024/01/30 11:59:50;;;;;;;24.23;22.60;;;;;;;;;;5069719;28;20453;-79
2024/01/30 12:02:17;;;;;;;23.13;21.57;;;;;;;;;;5065379;28;20446;-79
2024/01/30 12:04:47;;;;;;;22.80;21.20;;;;;;;;;;5054828;28;20546;-78
2024/01/30 12:07:15;;;;;;;24.70;23.03;;;;;;;;;;5055571;28;20478;-79
2024/01/30 12:09:42;;;;;;;22.60;21.10;;;;;;;;;;5056958;28;20463;-78
2024/01/30 12:12:11;;;;;;;25.70;23.70;;;;;;;;;;5058427;28;20442;-80
2024/01/30 12:14:39;;;;;;;24.60;22.90;;;;;;;;;;5057932;28;21009;-80
2024/01/30 12:17:07;;;;;;;24.80;22.77;;;;;;;;;;5054580;28;20520;-78
2024/01/30 12:19:34;;;;;;;24.70;23.10;;;;;;;;;;5055648;28;20467;-78
2024/01/30 12:22:04;;;;;;;25.47;23.30;;;;;;;;;;5054223;28;20473;-78
2024/01/30 12:24:31;;;;;;;23.27;21.70;;;;;;;;;;5055541;28;20421;-79
2024/01/30 12:26:58;;;;;;;24.87;22.93;;;;;;;;;;5066734;28;20452;-78
2024/01/30 12:29:25;;;;;;;23.87;22.37;;;;;;;;;;5054848;28;20474;-78
2024/01/30 12:31:54;;;;;;;23.90;22.00;;;;;;;;;;5057156;28;20424;-79
2024/01/30 12:34:22;;;;;;;24.23;22.57;;;;;;;;;;5075015;28;20467;-80
2024/01/30 12:36:50;;;;;;;24.90;23.00;;;;;;;;;;5075391;28;20452;-80
2024/01/30 12:39:18;;;;;;;22.97;21.37;;;;;;;;;;5075732;28;20450;-80
2024/01/30 12:41:45;;;;;;;23.10;21.60;;;;;;;;;;5075739;28;20417;-79
2024/01/30 12:44:14;;;;;;;24.67;22.90;;;;;;;;;;5075092;28;20477;-80
2024/01/30 12:46:41;;;;;;;24.50;22.97;;;;;;;;;;5054995;28;20483;-79
2024/01/30 12:49:08;;;;;;;24.47;22.60;;;;;;;;;;5054136;28;20490;-78
2024/01/30 12:51:39;;;;;;;24.73;22.93;;;;;;;;;;5053552;28;20425;-78
2024/01/30 12:54:07;;;;;;;24.77;23.07;;;;;;;;;;5053892;28;20470;-78
2024/01/30 12:56:36;;;;;;;23.53;22.13;;;;;;;;;;5052877;28;20946;-78
2024/01/30 12:59:03;;;;;;;22.93;21.50;;;;;;;;;;5052968;28;20489;-78
2024/01/30 13:01:30;;;;;;;24.53;22.50;;;;;;;;;;5052807;28;20504;-78
2024/01/30 13:03:58;;;;;;;24.30;22.50;;;;;;;;;;5053126;28;20446;-78
2024/01/30 13:06:25;;;;;;;25.20;23.30;;;;;;;;;;5052938;28;20431;-82
2024/01/30 13:08:52;;;;;;;25.37;23.67;;;;;;;;;;5057937;28;20964;-77
2024/01/30 13:11:19;;;;;;;22.50;20.90;;;;;;;;;;5072164;28;20442;-78
2024/01/30 13:13:48;;;;;;;25.83;24.10;;;;;;;;;;5074072;28;20434;-78
2024/01/30 13:16:15;;;;;;;24.97;23.17;;;;;;;;;;5073325;28;21297;-79
2024/01/30 13:18:42;;;;;;;23.23;21.43;;;;;;;;;;5073419;28;20434;-78
2024/01/30 13:21:10;;;;;;;25.23;23.40;;;;;;;;;;5072633;28;20942;-78
2024/01/30 13:23:37;;;;;;;24.73;23.03;;;;;;;;;;5073225;28;20450;-78
2024/01/30 13:26:07;;;;;;;24.60;22.80;;;;;;;;;;5068365;28;20473;-79
2024/01/30 13:28:34;;;;;;;24.90;23.10;;;;;;;;;;5057472;28;20426;-80
2024/01/30 13:31:03;;;;;;;25.43;23.53;;;;;;;;;;5059497;28;20766;-80
2024/01/30 13:33:30;;;;;;;23.83;22.20;;;;;;;;;;5054094;28;20433;-78
2024/01/30 13:35:58;;;;;;;27.07;24.97;;;;;;;;;;5054516;28;20482;-78
2024/01/30 13:38:26;;;;;;;23.67;22.00;;;;;;;;;;5055781;28;20441;-79
2024/01/30 13:40:53;;;;;;;25.33;23.67;;;;;;;;;;5054192;28;20571;-78
2024/01/30 13:43:21;;;;;;;22.93;21.43;;;;;;;;;;5053264;28;20450;-77
2024/01/30 13:45:48;;;;;;;26.53;24.33;;;;;;;;;;5053714;28;20445;-79
2024/01/30 13:48:16;;;;;;;25.83;23.87;;;;;;;;;;5052184;28;21036;-77
2024/01/30 13:50:43;;;;;;;24.90;23.07;;;;;;;;;;5051895;28;20538;-77
2024/01/30 13:53:10;;;;;;;23.50;21.80;;;;;;;;;;5051890;28;20430;-77
2024/01/30 13:55:37;;;;;;;24.50;22.70;;;;;;;;;;5053048;28;20994;-81
2024/01/30 13:58:05;;;;;;;24.87;22.93;;;;;;;;;;5054654;28;20453;-78
2024/01/30 14:00:32;;;;;;;25.50;23.50;;;;;;;;;;5052294;28;20486;-80
2024/01/30 14:02:59;;;;;;;22.63;20.90;;;;;;;;;;5055107;28;20451;-78
2024/01/30 14:05:28;;;;;;;23.83;21.97;;;;;;;;;;5054705;28;20427;-78
2024/01/30 14:07:58;;;;;;;23.80;22.03;;;;;;;;;;5054340;28;20468;-79
2024/01/30 14:10:25;;;;;;;25.17;23.27;;;;;;;;;;5053361;28;20480;-79
2024/01/30 14:12:52;;;;;;;25.57;23.57;;;;;;;;;;5051933;28;20551;-77
2024/01/30 14:15:19;;;;;;;23.93;22.37;;;;;;;;;;5052539;28;20457;-78
2024/01/30 14:17:48;;;;;;;27.60;25.03;;;;;;;;;;5064461;28;20458;-78
2024/01/30 14:20:16;;;;;;;26.63;24.37;;;;;;;;;;5053464;28;20488;-78